Time;durP1;ratioP1;P1;durP2;ratioP2;P2;SDS_P1;SDS_P2;PMS_P1;PMS_P2;Temp;Humidity;BMP_temperature;BMP_pressure;BME280_temperature;BME280_humidity;BME280_pressure;Samples;Min_cycle;Max_cycle;Signal;HPM_P1;HPM_P2
2022/02/21 00:02:08;;;;;;;;;3.25;2.00;;;;;10.08;74.29;100392.00;5030255;28;45043;-84
2022/02/21 00:04:33;;;;;;;;;4.50;3.00;;;;;9.52;72.60;100316.75;5047961;28;45262;-88
2022/02/21 00:06:59;;;;;;;;;5.00;2.50;;;;;10.05;72.27;100412.03;5029796;28;47420;-84
2022/02/21 00:09:24;;;;;;;;;8.00;6.50;;;;;10.05;72.16;100409.41;5048116;28;45045;-87
2022/02/21 00:11:49;;;;;;;;;3.25;2.50;;;;;9.96;71.46;100412.66;5047801;28;45172;-85
2022/02/21 00:14:15;;;;;;;;;5.75;3.25;;;;;9.49;70.43;100330.66;5048572;28;45124;-84
2022/02/21 00:16:40;;;;;;;;;6.50;3.75;;;;;9.44;70.30;100320.88;5030189;28;47258;-88
2022/02/21 00:19:05;;;;;;;;;5.00;2.75;;;;;9.88;69.94;100410.59;5048950;28;45246;-87
2022/02/21 00:21:31;;;;;;;;;2.75;2.75;;;;;9.52;68.96;100362.25;5051821;28;45307;-87
2022/02/21 00:23:56;;;;;;;;;3.00;1.50;;;;;8.86;68.55;100235.94;5050143;28;45069;-89
2022/02/21 00:26:22;;;;;;;;;4.00;3.00;;;;;9.44;68.19;100355.84;5051465;28;46504;-87
2022/02/21 00:28:48;;;;;;;;;3.50;2.00;;;;;9.79;67.52;100433.09;5051654;28;45135;-88
2022/02/21 00:31:14;;;;;;;;;7.25;4.25;;;;;9.44;67.22;100376.84;5052414;28;45202;-87
2022/02/21 00:33:39;;;;;;;;;5.00;4.00;;;;;9.27;67.01;100380.63;5051229;28;45135;-89
2022/02/21 00:36:05;;;;;;;;;5.00;3.00;;;;;9.19;66.72;100364.63;5032886;28;47487;-87
2022/02/21 00:38:31;;;;;;;;;5.25;4.00;;;;;9.47;66.21;100428.53;5033193;28;45131;-89
2022/02/21 00:40:56;;;;;;;;;5.75;3.00;;;;;9.28;65.59;100416.50;5051683;28;45382;-87
2022/02/21 00:43:21;;;;;;;;;3.75;3.50;;;;;8.76;65.02;100329.06;5052440;28;45158;-88
2022/02/21 00:45:47;;;;;;;;;3.00;2.00;;;;;9.22;64.61;100409.31;5051076;28;45541;-84
2022/02/21 00:48:12;;;;;;;;;5.00;3.00;;;;;9.31;64.97;100429.72;5051051;28;45005;-86
2022/02/21 00:50:38;;;;;;;;;4.00;3.00;;;;;8.76;65.08;100354.38;5051232;28;45069;-85
2022/02/21 00:53:03;;;;;;;;;3.75;3.75;;;;;8.78;64.43;100344.88;5051118;28;45194;-84
2022/02/21 00:55:30;;;;;;;;;6.50;4.00;;;;;8.82;63.92;100359.88;5050641;28;45072;-86
2022/02/21 00:57:56;;;;;;;;;3.75;3.50;;;;;9.43;63.74;100472.09;5050814;28;45323;-84
2022/02/21 01:00:21;;;;;;;;;4.00;2.25;;;;;8.78;63.21;100363.22;5051234;28;45036;-87
2022/02/21 01:02:46;;;;;;;;;4.50;2.25;;;;;8.50;63.31;100335.13;5032377;28;45279;-86
2022/02/21 01:05:12;;;;;;;;;3.25;2.00;;;;;8.93;62.69;100421.41;5032932;28;47401;-86
2022/02/21 01:07:37;;;;;;;;;2.25;2.00;;;;;8.38;62.40;100325.09;5050771;28;44978;-87
2022/02/21 01:10:04;;;;;;;;;3.75;3.50;;;;;9.10;62.53;100465.66;5032648;28;45051;-86
2022/02/21 01:12:30;;;;;;;;;5.25;2.50;;;;;8.45;62.78;100379.47;5050747;28;45307;-88
2022/02/21 01:14:56;;;;;;;;;3.50;2.75;;;;;9.24;64.89;100557.09;5050771;28;45517;-87
2022/02/21 01:17:22;;;;;;;;;1.75;1.00;;;;;8.88;65.63;100467.53;5050881;28;45017;-88
2022/02/21 01:19:49;;;;;;;;;3.50;3.00;;;;;8.88;65.54;100453.53;5032764;28;45227;-91
2022/02/21 01:22:14;;;;;;;;;1.75;1.00;;;;;9.00;65.25;100536.09;5051096;28;45163;-88
2022/02/21 01:24:40;;;;;;;;;2.50;1.50;;;;;8.96;66.26;100562.13;5032163;28;46196;-87
2022/02/21 01:27:05;;;;;;;;;1.00;1.00;;;;;8.39;66.65;100485.72;5051240;28;45089;-87
2022/02/21 01:29:30;;;;;;;;;2.67;2.33;;;;;7.71;66.73;100383.56;5032137;28;45042;-86
2022/02/21 01:31:56;;;;;;;;;3.75;1.75;;;;;8.36;67.16;100512.66;5031702;28;45298;-88
2022/02/21 01:34:21;;;;;;;;;2.25;1.00;;;;;7.86;67.12;100443.47;5050719;28;45305;-86
2022/02/21 01:36:48;;;;;;;;;5.00;2.00;;;;;7.96;67.26;100476.13;5010194;28;45385;-91
2022/02/21 01:39:13;;;;;;;;;5.00;3.00;;;;;8.53;67.47;100589.31;5050478;28;45501;-87
2022/02/21 01:41:38;;;;;;;;;3.00;1.75;;;;;7.84;67.65;100467.78;5050894;28;44907;-87
2022/02/21 01:44:08;;;;;;;;;4.75;3.75;;;;;8.44;67.80;100595.06;5050735;28;45566;-88
2022/02/21 01:46:35;;;;;;;;;1.00;1.00;;;;;7.68;67.63;100464.50;5050280;28;45470;-88
2022/02/21 01:49:01;;;;;;;;;3.00;1.00;;;;;8.07;67.98;100531.50;5022711;28;45165;-89
2022/02/21 01:51:27;;;;;;;;;2.00;2.00;;;;;8.30;67.13;100570.00;5046383;28;45145;-86
2022/02/21 01:53:56;;;;;;;;;1.25;1.00;;;;;7.60;67.20;100433.66;5022491;28;47086;-88
2022/02/21 01:56:24;;;;;;;;;2.25;1.00;;;;;8.47;66.35;100568.09;5040016;28;46177;-91
2022/02/21 01:58:49;;;;;;;;;2.50;2.50;;;;;8.01;66.61;100475.47;5046275;28;45108;-83
2022/02/21 02:01:15;;;;;;;;;2.25;2.25;;;;;8.24;66.41;100499.06;5046792;28;45211;-89
2022/02/21 02:03:40;;;;;;;;;3.75;2.00;;;;;8.67;66.45;100564.56;5046859;28;45646;-88
2022/02/21 02:06:09;;;;;;;;;2.00;1.75;;;;;8.26;65.78;100487.81;5026275;28;45088;-87
2022/02/21 02:08:34;;;;;;;;;4.00;3.00;;;;;8.37;65.71;100516.19;5044380;28;45733;-90
2022/02/21 02:10:59;;;;;;;;;4.75;3.25;;;;;8.28;65.47;100493.13;5050987;28;44838;-89
2022/02/21 02:13:25;;;;;;;;;6.50;4.00;;;;;8.17;65.99;100487.44;5051593;28;45752;-89
2022/02/21 02:15:52;;;;;;;;;7.00;4.50;;;;;8.70;65.95;100580.38;5050070;28;45131;-89
2022/02/21 02:18:17;;;;;;;;;3.00;3.00;;;;;8.42;66.12;100540.81;5043576;28;45168;-86
2022/02/21 02:20:42;;;;;;;;;3.75;2.25;;;;;8.20;65.70;100508.53;5048264;28;45375;-87
2022/02/21 02:23:08;;;;;;;;;4.00;2.00;;;;;7.91;65.75;100475.94;5050385;28;45507;-90
2022/02/21 02:25:33;;;;;;;;;4.75;2.75;;;;;8.61;65.75;100603.59;5045433;28;45101;-89
2022/02/21 02:27:59;;;;;;;;;3.75;3.50;;;;;8.44;64.91;100570.59;5045619;28;45399;-88
2022/02/21 02:30:24;;;;;;;;;3.25;3.25;;;;;8.20;64.71;100532.09;5048329;28;45357;-90
2022/02/21 02:32:51;;;;;;;;;7.00;4.25;;;;;8.33;64.69;100556.16;5031154;28;47675;-89
2022/02/21 02:35:16;;;;;;;;;5.25;3.25;;;;;7.91;64.85;100503.81;5032170;28;45244;-88
2022/02/21 02:37:43;;;;;;;;;5.50;5.25;;;;;8.19;64.40;100534.66;5050135;28;45071;-86
2022/02/21 02:40:09;;;;;;;;;2.00;1.00;;;;;8.39;64.53;100577.38;5049660;28;45108;-89
2022/02/21 02:42:34;;;;;;;;;3.50;2.75;;;;;7.95;64.29;100500.50;5030796;28;47737;-86
2022/02/21 02:44:59;;;;;;;;;5.25;3.50;;;;;7.85;63.72;100474.81;5028664;28;46232;-89
2022/02/21 02:47:25;;;;;;;;;8.75;6.50;;;;;8.20;64.09;100542.56;5022970;28;45683;-87
2022/02/21 02:49:50;;;;;;;;;7.00;4.00;;;;;7.98;63.90;100525.09;5027628;28;45161;-87
2022/02/21 02:52:16;;;;;;;;;4.25;2.50;;;;;7.40;63.89;100425.00;5045212;28;45413;-90
2022/02/21 02:54:41;;;;;;;;;3.00;1.75;;;;;8.39;63.92;100591.38;5044940;28;45115;-88
2022/02/21 02:57:07;;;;;;;;;7.00;4.00;;;;;8.33;63.99;100583.22;5049061;28;45108;-87
2022/02/21 02:59:32;;;;;;;;;6.00;3.75;;;;;8.13;63.46;100560.59;5048908;28;45293;-83
2022/02/21 03:01:58;;;;;;;;;3.75;2.25;;;;;8.40;63.73;100602.72;5017483;28;47421;-89
2022/02/21 03:04:23;;;;;;;;;6.75;3.50;;;;;8.14;63.32;100564.97;5029459;28;45431;-89
2022/02/21 03:06:49;;;;;;;;;3.75;3.50;;;;;7.52;63.55;100477.78;5029453;28;45016;-88
2022/02/21 03:09:14;;;;;;;;;6.00;4.75;;;;;8.25;63.36;100582.91;5010750;28;45081;-87
2022/02/21 03:11:39;;;;;;;;;3.25;2.00;;;;;7.82;63.28;100520.03;5019082;28;47369;-87
2022/02/21 03:14:05;;;;;;;;;1.25;1.00;;;;;8.06;63.04;100564.66;5049453;28;44970;-89
2022/02/21 03:16:31;;;;;;;;;3.00;3.00;;;;;7.32;63.36;100429.88;5044585;28;45112;-87
2022/02/21 03:18:57;;;;;;;;;2.50;1.50;;;;;7.95;63.19;100543.28;5045712;28;45086;-85
2022/02/21 03:21:22;;;;;;;;;4.25;3.00;;;;;7.40;63.46;100452.03;5049270;28;45624;-88
2022/02/21 03:23:48;;;;;;;;;2.00;2.00;;;;;7.24;63.43;100437.41;5018793;28;45107;-87
2022/02/21 03:26:13;;;;;;;;;4.25;3.50;;;;;7.47;63.55;100485.44;5022187;28;45085;-88
2022/02/21 03:28:38;;;;;;;;;0.25;0.25;;;;;7.63;63.11;100518.34;5043154;28;45372;-87
2022/02/21 03:31:04;;;;;;;;;3.75;2.75;;;;;7.73;63.72;100557.19;5048537;28;45631;-86
2022/02/21 03:33:29;;;;;;;;;3.00;2.50;;;;;7.41;64.01;100497.38;5045009;28;45300;-86
2022/02/21 03:35:55;;;;;;;;;3.00;2.00;;;;;7.67;63.64;100562.13;5046433;28;45363;-90
2022/02/21 03:38:20;;;;;;;;;3.00;2.00;;;;;7.56;63.81;100552.03;5029993;28;45140;-84
2022/02/21 03:40:47;;;;;;;;;3.75;3.00;;;;;6.64;63.65;100399.03;5048953;28;45969;-87
2022/02/21 03:43:12;;;;;;;;;3.00;1.25;;;;;6.52;63.52;100409.84;5047666;28;45352;-89
2022/02/21 03:45:38;;;;;;;;;2.00;2.00;;;;;7.30;63.51;100532.63;5027580;28;45249;-87
2022/02/21 03:48:03;;;;;;;;;4.00;3.00;;;;;7.40;63.58;100561.84;5047742;28;45159;-87
2022/02/21 03:50:29;;;;;;;;;3.00;1.00;;;;;6.76;63.59;100427.44;5044205;28;46157;-91
2022/02/21 03:52:54;;;;;;;;;2.33;2.00;;;;;6.88;63.48;100447.13;5020553;28;44991;-90
2022/02/21 03:55:22;;;;;;;;;3.75;2.00;;;;;7.45;63.39;100552.47;5049763;28;44926;-91
2022/02/21 03:57:48;;;;;;;;;2.25;1.25;;;;;7.19;63.59;100517.34;5048237;28;45093;-88
2022/02/21 04:00:18;;;;;;;;;3.00;3.00;;;;;7.29;63.33;100529.09;5052667;28;45870;-91
2022/02/21 04:02:44;;;;;;;;;3.50;1.50;;;;;7.68;63.17;100591.78;5052507;28;45528;-89
2022/02/21 04:05:10;;;;;;;;;1.25;1.25;;;;;7.13;63.14;100479.56;5052813;28;45012;-89
2022/02/21 04:07:37;;;;;;;;;2.00;1.75;;;;;7.86;63.31;100624.00;5051767;28;45123;-87
2022/02/21 04:10:03;;;;;;;;;1.75;1.25;;;;;7.32;63.29;100524.00;5052797;28;45250;-90
2022/02/21 04:12:28;;;;;;;;;3.25;1.25;;;;;7.99;63.45;100612.34;5033427;28;45664;-88
2022/02/21 04:14:54;;;;;;;;;2.00;1.00;;;;;7.10;63.53;100471.63;5033909;28;45222;-90
2022/02/21 04:17:19;;;;;;;;;2.75;2.00;;;;;7.52;63.11;100530.09;5051429;28;45141;-87
2022/02/21 04:19:47;;;;;;;;;1.00;1.00;;;;;7.36;63.68;100506.72;5034476;28;47686;-88
2022/02/21 04:22:14;;;;;;;;;1.00;1.00;;;;;7.50;63.78;100534.38;5033559;28;45366;-88
2022/02/21 04:24:39;;;;;;;;;3.00;2.00;;;;;7.93;63.70;100619.91;5052073;28;45131;-88
2022/02/21 04:27:06;;;;;;;;;7.00;3.50;;;;;7.39;63.93;100536.53;5052755;28;45282;-86
2022/02/21 04:29:31;;;;;;;;;3.00;2.00;;;;;7.46;63.88;100555.97;5033601;28;46284;-88
2022/02/21 04:31:57;;;;;;;;;1.75;1.00;;;;;7.66;63.88;100576.03;5045575;28;45412;-89
2022/02/21 04:34:23;;;;;;;;;6.00;2.00;;;;;7.44;63.94;100541.97;5026216;28;45187;-88
2022/02/21 04:36:48;;;;;;;;;1.00;1.00;;;;;6.83;63.82;100451.25;5032195;28;44973;-88
2022/02/21 04:39:14;;;;;;;;;2.50;1.25;;;;;7.40;63.78;100550.50;5031777;28;45889;-88
2022/02/21 04:41:39;;;;;;;;;1.00;0.00;;;;;7.61;64.11;100567.09;5031837;28;45112;-86
2022/02/21 04:44:05;;;;;;;;;2.00;1.00;;;;;7.67;64.01;100585.66;5014899;28;46332;-84
2022/02/21 04:46:30;;;;;;;;;3.00;2.00;;;;;7.57;64.01;100559.94;5045902;28;45458;-84
2022/02/21 04:48:56;;;;;;;;;2.00;1.25;;;;;7.30;63.93;100532.63;5047235;28;45679;-89
2022/02/21 04:51:21;;;;;;;;;2.50;1.50;;;;;7.43;64.15;100559.34;5047760;28;45405;-88
2022/02/21 04:53:47;;;;;;;;;2.00;1.00;;;;;7.10;64.17;100482.97;5048632;28;45137;-91
2022/02/21 04:56:12;;;;;;;;;1.75;1.75;;;;;7.44;64.67;100561.16;5047726;28;45276;-87
2022/02/21 04:58:38;;;;;;;;;2.25;2.00;;;;;7.76;64.84;100638.41;5046705;28;45667;-90
2022/02/21 05:01:03;;;;;;;;;1.75;0.00;;;;;7.49;64.55;100561.34;5051420;28;45383;-87
2022/02/21 05:03:29;;;;;;;;;5.00;2.00;;;;;7.50;64.63;100563.13;5025796;28;45190;-90
2022/02/21 05:05:54;;;;;;;;;2.50;1.50;;;;;7.05;64.74;100494.94;5049521;28;45426;-89
2022/02/21 05:08:19;;;;;;;;;2.00;1.00;;;;;7.34;64.60;100534.50;5051132;28;45793;-87
2022/02/21 05:10:45;;;;;;;;;3.50;2.75;;;;;7.11;64.52;100504.75;5052205;28;44978;-86
2022/02/21 05:13:10;;;;;;;;;5.00;1.75;;;;;7.87;64.56;100624.88;5051621;28;45512;-87
2022/02/21 05:15:35;;;;;;;;;0.25;0.25;;;;;7.36;64.50;100553.78;5048430;28;45140;-88
2022/02/21 05:18:01;;;;;;;;;2.25;1.00;;;;;7.33;64.31;100554.53;5048446;28;45158;-90
2022/02/21 05:20:26;;;;;;;;;1.75;1.00;;;;;7.24;64.28;100549.81;5052131;28;45200;-86
2022/02/21 05:22:52;;;;;;;;;1.25;1.00;;;;;7.07;64.36;100524.63;5062355;28;44711;-87
2022/02/21 05:25:18;;;;;;;;;1.00;0.67;;;;;7.56;64.70;100634.00;5061008;28;44825;-84
2022/02/21 05:27:43;;;;;;;;;1.00;1.00;;;;;7.13;65.09;100568.44;5061911;28;47125;-87
2022/02/21 05:30:10;;;;;;;;;1.50;1.50;;;;;7.02;64.99;100546.16;5063156;28;44715;-87
2022/02/21 05:32:38;;;;;;;;;2.50;0.75;;;;;6.86;64.67;100523.66;5062528;28;44846;-85
2022/02/21 05:35:04;;;;;;;;;1.75;0.00;;;;;7.04;64.94;100576.72;5063589;28;44744;-86
2022/02/21 05:37:29;;;;;;;;;2.00;1.75;;;;;7.44;65.31;100618.69;5060760;28;45505;-89
2022/02/21 05:39:54;;;;;;;;;1.67;1.00;;;;;6.61;65.01;100485.97;5062637;28;44785;-86
2022/02/21 05:42:21;;;;;;;;;0.00;0.00;;;;;6.99;64.80;100539.06;5035204;28;44756;-88
2022/02/21 05:44:46;;;;;;;;;0.75;0.00;;;;;7.14;64.99;100563.28;5058909;28;45174;-84
2022/02/21 05:47:12;;;;;;;;;0.50;0.00;;;;;7.54;64.96;100643.53;5062510;28;45711;-83
2022/02/21 05:49:37;;;;;;;;;3.00;1.00;;;;;7.18;64.75;100566.91;5061699;28;45141;-88
2022/02/21 05:52:03;;;;;;;;;2.00;0.50;;;;;7.52;65.08;100633.78;5056736;28;45029;-89
2022/02/21 05:54:29;;;;;;;;;1.00;0.00;;;;;7.34;65.00;100605.09;5028860;28;44903;-85
2022/02/21 05:56:56;;;;;;;;;0.00;0.00;;;;;6.96;65.28;100546.78;5055205;28;45908;-87
2022/02/21 05:59:22;;;;;;;;;1.00;1.00;;;;;7.42;65.35;100628.16;5056159;28;45320;-86
2022/02/21 06:01:48;;;;;;;;;0.25;0.00;;;;;6.86;65.12;100549.78;5057399;28;45058;-85
2022/02/21 06:04:13;;;;;;;;;0.00;0.00;;;;;7.01;65.41;100578.34;5029090;28;45204;-86
2022/02/21 06:06:38;;;;;;;;;0.00;0.00;;;;;7.02;65.82;100595.81;5044026;28;45984;-87
2022/02/21 06:09:04;;;;;;;;;0.25;0.00;;;;;7.03;65.64;100597.59;5057123;28;44739;-86
2022/02/21 06:11:30;;;;;;;;;1.00;0.00;;;;;6.80;65.49;100565.16;5057367;28;45069;-86
2022/02/21 06:13:55;;;;;;;;;0.75;0.00;;;;;7.33;65.47;100645.13;5057170;28;45136;-85
2022/02/21 06:16:21;;;;;;;;;0.00;0.00;;;;;7.09;65.78;100590.91;5046641;28;46466;-87
2022/02/21 06:18:47;;;;;;;;;0.50;0.00;;;;;7.17;65.92;100620.91;5050434;28;45156;-86
2022/02/21 06:21:12;;;;;;;;;0.00;0.00;;;;;6.86;65.89;100578.53;5039536;28;45333;-85
2022/02/21 06:23:38;;;;;;;;;0.75;0.00;;;;;6.67;65.95;100542.81;5030188;28;45598;-86
2022/02/21 06:26:04;;;;;;;;;1.50;1.50;;;;;7.17;66.12;100625.25;5027931;28;46447;-90
2022/02/21 06:28:30;;;;;;;;;1.75;1.00;;;;;7.28;66.33;100637.09;5026058;28;45465;-90
2022/02/21 06:30:55;;;;;;;;;1.50;0.50;;;;;7.15;66.77;100612.13;5012320;28;46217;-90
2022/02/21 06:33:21;;;;;;;;;3.00;2.00;;;;;7.01;66.63;100576.63;5036951;28;45626;-87
2022/02/21 06:35:47;;;;;;;;;1.00;1.00;;;;;7.21;66.29;100607.16;5035980;28;46802;-87
2022/02/21 06:38:13;;;;;;;;;2.00;2.00;;;;;7.28;65.81;100617.91;5016542;28;45502;-85
2022/02/21 06:40:38;;;;;;;;;1.00;1.00;;;;;7.51;66.12;100659.06;5022360;28;45964;-84
2022/02/21 06:43:04;;;;;;;;;1.00;1.00;;;;;7.46;66.43;100653.63;5029673;28;45578;-87
2022/02/21 06:45:29;;;;;;;;;2.75;2.00;;;;;7.13;66.15;100608.53;5035705;28;46384;-86
2022/02/21 06:47:56;;;;;;;;;1.00;1.00;;;;;6.52;66.15;100492.50;5034905;28;45324;-88
2022/02/21 06:50:22;;;;;;;;;2.00;1.00;;;;;6.73;66.01;100549.19;5015077;28;45542;-87
2022/02/21 06:52:48;;;;;;;;;2.25;1.00;;;;;7.38;66.19;100672.38;5034744;28;45703;-88
2022/02/21 06:55:14;;;;;;;;;0.75;0.00;;;;;5.74;66.32;100384.41;5034798;28;46179;-90
2022/02/21 06:57:41;;;;;;;;;1.50;0.00;;;;;6.05;66.31;100465.91;5016740;28;45388;-89
2022/02/21 07:00:07;;;;;;;;;1.00;1.00;;;;;6.24;66.40;100504.22;5034911;28;45379;-88
2022/02/21 07:02:32;;;;;;;;;1.75;1.00;;;;;6.10;66.44;100490.50;5034825;28;45424;-85
2022/02/21 07:04:59;;;;;;;;;2.00;1.00;;;;;6.93;66.72;100640.66;5033648;28;51783;-90
2022/02/21 07:07:25;;;;;;;;;1.50;0.25;;;;;6.88;66.39;100637.84;5034832;28;45676;-88
2022/02/21 07:09:50;;;;;;;;;1.25;0.75;;;;;7.17;66.19;100696.72;5032067;28;45353;-88
2022/02/21 07:12:17;;;;;;;;;2.00;2.00;;;;;6.61;66.46;100606.09;5024853;28;45805;-86
2022/02/21 07:14:42;;;;;;;;;0.75;0.00;;;;;6.86;66.65;100659.50;5030463;28;45732;-88
2022/02/21 07:17:08;;;;;;;;;2.75;1.50;;;;;6.78;66.48;100653.00;5015746;28;45410;-85
2022/02/21 07:19:33;;;;;;;;;1.00;1.00;;;;;6.21;66.54;100548.47;5009090;28;45706;-83
2022/02/21 07:21:59;;;;;;;;;3.75;1.00;;;;;6.23;66.63;100566.78;5013100;28;45520;-83
2022/02/21 07:24:24;;;;;;;;;3.50;1.75;;;;;6.72;66.47;100643.16;5008634;28;47558;-89
2022/02/21 07:26:49;;;;;;;;;4.50;2.50;;;;;6.95;66.56;100697.41;5036479;28;45171;-82
2022/02/21 07:29:16;;;;;;;;;1.00;1.00;;;;;6.54;66.42;100618.75;5031507;28;45545;-87
2022/02/21 07:31:41;;;;;;;;;3.00;3.00;;;;;6.71;66.39;100664.88;5029066;28;45419;-83
2022/02/21 07:34:07;;;;;;;;;1.75;1.75;;;;;6.60;66.45;100630.44;5025833;28;46693;-81
2022/02/21 07:36:34;;;;;;;;;3.00;1.75;;;;;6.71;66.60;100649.22;5029052;28;45578;-84
2022/02/21 07:39:01;;;;;;;;;3.00;2.50;;;;;6.59;66.73;100615.53;5009733;28;45479;-86
2022/02/21 07:41:27;;;;;;;;;1.75;1.25;;;;;6.84;66.58;100645.44;5035135;28;45739;-83
2022/02/21 07:43:52;;;;;;;;;1.75;1.75;;;;;6.79;66.28;100639.13;5031118;28;46332;-86
2022/02/21 07:46:17;;;;;;;;;2.00;1.00;;;;;6.46;66.60;100563.59;5011575;28;45816;-82
2022/02/21 07:48:43;;;;;;;;;2.25;1.50;;;;;6.38;66.66;100546.66;5029343;28;45472;-85
2022/02/21 07:51:08;;;;;;;;;2.00;1.25;;;;;6.75;66.64;100603.22;5005569;28;45709;-88
2022/02/21 07:53:33;;;;;;;;;3.00;2.00;;;;;7.40;66.71;100723.94;5028331;28;45807;-88
2022/02/21 07:55:59;;;;;;;;;3.00;2.00;;;;;6.50;66.63;100555.06;5028167;28;45382;-88
2022/02/21 07:58:24;;;;;;;;;3.50;2.50;;;;;7.02;66.59;100640.22;5010907;28;45555;-86
2022/02/21 08:00:50;;;;;;;;;3.00;1.75;;;;;7.49;66.50;100720.88;5011638;28;45607;-87
2022/02/21 08:03:15;;;;;;;;;2.25;1.50;;;;;6.91;66.88;100611.88;5029458;28;45538;-91
2022/02/21 08:05:40;;;;;;;;;5.75;3.00;;;;;6.26;66.56;100486.06;5025395;28;45678;-85
2022/02/21 08:08:07;;;;;;;;;6.25;1.75;;;;;7.22;66.54;100658.63;5025696;28;45606;-84
2022/02/21 08:10:34;;;;;;;;;1.75;0.75;;;;;6.49;66.34;100541.94;5030639;28;45493;-85
2022/02/21 08:13:01;;;;;;;;;3.00;2.00;;;;;7.46;66.55;100712.88;5036094;28;46179;-84
2022/02/21 08:15:27;;;;;;;;;5.50;5.50;;;;;7.53;66.52;100717.53;5031024;28;45436;-84
2022/02/21 08:17:53;;;;;;;;;3.00;3.00;;;;;7.21;66.61;100651.59;5010127;28;45827;-82
2022/02/21 08:20:23;;;;;;;;;3.00;3.00;;;;;7.63;66.72;100721.47;5005252;28;45408;-85
2022/02/21 08:22:51;;;;;;;;;4.00;2.50;;;;;7.44;66.64;100681.44;5024105;28;45726;-87
2022/02/21 08:25:17;;;;;;;;;2.00;2.00;;;;;7.01;66.28;100626.25;5022776;28;45718;-83
2022/02/21 08:27:44;;;;;;;;;2.25;1.75;;;;;7.73;66.39;100726.31;5008690;28;45686;-83
2022/02/21 08:30:15;;;;;;;;;3.00;2.00;;;;;6.37;66.34;100484.84;5022308;28;45919;-91
2022/02/21 08:32:41;;;;;;;;;2.75;2.25;;;;;6.71;66.21;100535.19;5025119;28;46327;-93
2022/02/21 08:35:09;;;;;;;;;1.50;1.50;;;;;6.95;65.96;100572.00;5022641;28;45161;-96
2022/02/21 08:37:35;;;;;;;;;3.75;3.00;;;;;6.77;65.98;100545.03;5008335;28;45420;-81
2022/02/21 08:40:04;;;;;;;;;1.50;1.50;;;;;7.93;66.06;100716.72;5027666;28;45419;-93
2022/02/21 08:42:29;;;;;;;;;2.00;2.00;;;;;7.31;65.96;100600.63;5031220;28;45512;-85
2022/02/21 08:45:01;;;;;;;;;2.50;1.00;;;;;7.34;65.55;100576.34;5031355;28;45808;-95
2022/02/21 08:47:27;;;;;;;;;2.25;1.75;;;;;7.83;65.19;100609.88;5046970;28;45426;-92
2022/02/21 08:49:52;;;;;;;;;3.50;2.75;;;;;7.40;64.68;100527.84;5007419;28;45862;-83
2022/02/21 08:52:19;;;;;;;;;6.50;6.50;;;;;7.82;64.63;100566.22;5025839;28;48094;-87
2022/02/21 08:54:45;;;;;;;;;5.75;5.75;;;;;7.84;64.58;100564.59;5026036;28;45152;-90
2022/02/21 08:57:11;;;;;;;;;2.00;2.00;;;;;8.37;64.42;100647.09;5034516;28;45496;-83
2022/02/21 08:59:36;;;;;;;;;2.00;2.00;;;;;8.12;63.94;100600.66;5032897;28;45541;-82
2022/02/21 09:02:02;;;;;;;;;3.75;2.00;;;;;7.92;63.54;100603.31;5022898;28;45640;-84
2022/02/21 09:04:28;;;;;;;;;2.75;1.75;;;;;8.64;63.13;100705.00;5032876;28;45303;-82
2022/02/21 09:06:55;;;;;;;;;3.75;2.00;;;;;8.76;63.54;100748.31;5042840;28;45392;-94
2022/02/21 09:09:22;;;;;;;;;1.50;1.50;;;;;8.23;63.47;100633.44;5028054;28;45452;-82
2022/02/21 09:11:48;;;;;;;;;2.50;1.50;;;;;7.92;63.29;100608.56;5008412;28;47986;-87
2022/02/21 09:14:14;;;;;;;;;2.00;1.25;;;;;8.67;63.37;100713.91;5006999;28;45378;-85
2022/02/21 09:16:39;;;;;;;;;1.25;1.00;;;;;7.83;63.29;100576.78;5008486;28;45353;-82
2022/02/21 09:19:04;;;;;;;;;1.50;1.00;;;;;8.70;63.06;100716.63;5027465;28;45879;-86
2022/02/21 09:21:30;;;;;;;;;1.75;1.00;;;;;8.89;62.95;100725.25;5039578;28;47622;-84
2022/02/21 09:23:55;;;;;;;;;1.50;1.50;;;;;8.37;63.06;100644.50;5040594;28;46203;-85
2022/02/21 09:26:21;;;;;;;;;3.25;2.00;;;;;7.93;62.99;100533.56;5039406;28;45536;-87
2022/02/21 09:28:47;;;;;;;;;2.25;0.50;;;;;8.60;62.74;100599.19;5025587;28;46093;-83
2022/02/21 09:31:14;;;;;;;;;2.50;1.00;;;;;8.82;61.82;100607.88;5034823;28;46600;-82
2022/02/21 09:33:39;;;;;;;;;1.50;1.50;;;;;8.98;61.73;100639.13;5050172;28;45594;-86
2022/02/21 09:36:06;;;;;;;;;2.50;1.00;;;;;8.46;61.67;100535.78;5040948;28;46240;-87
2022/02/21 09:38:33;;;;;;;;;5.50;2.50;;;;;8.99;61.79;100651.41;5044091;28;45876;-82
2022/02/21 09:40:58;;;;;;;;;0.75;0.75;;;;;9.13;61.71;100660.69;5018166;28;47854;-84
2022/02/21 09:43:26;;;;;;;;;3.00;2.00;;;;;8.62;61.54;100553.00;5033096;28;45731;-86
2022/02/21 09:45:59;;;;;;;;;2.75;1.25;;;;;9.03;61.47;100586.03;5032400;28;45893;-82
2022/02/21 09:48:26;;;;;;;;;4.00;2.25;;;;;9.49;61.17;100665.56;5026618;28;45811;-81
2022/02/21 09:50:51;;;;;;;;;3.25;3.00;;;;;9.80;61.12;100693.81;5030540;28;45365;-82
2022/02/21 09:53:17;;;;;;;;;3.33;2.00;;;;;10.10;60.58;100707.19;5023971;28;46870;-82
2022/02/21 09:55:43;;;;;;;;;5.50;3.00;;;;;10.18;60.33;100729.34;5031949;28;45696;-83
2022/02/21 09:58:10;;;;;;;;;2.50;2.00;;;;;9.48;60.80;100630.56;5040041;28;45752;-90
2022/02/21 10:00:37;;;;;;;;;1.75;1.25;;;;;9.23;60.06;100597.28;5002343;28;45558;-84
2022/02/21 10:03:03;;;;;;;;;1.25;1.00;;;;;10.04;59.79;100731.47;5041328;28;45443;-82
2022/02/21 10:05:30;;;;;;;;;2.75;1.00;;;;;9.65;59.51;100682.75;5009656;28;45816;-83
2022/02/21 10:07:56;;;;;;;;;2.50;1.75;;;;;9.31;59.40;100584.47;5038516;28;45470;-87
2022/02/21 10:10:24;;;;;;;;;2.00;1.50;;;;;9.10;59.18;100532.09;5034578;28;45747;-85
2022/02/21 10:12:54;;;;;;;;;2.25;2.00;;;;;10.16;59.21;100730.13;5034821;28;45730;-86
2022/02/21 10:15:23;;;;;;;;;1.75;1.75;;;;;10.09;59.20;100715.88;5026680;28;45740;-81
2022/02/21 10:17:50;;;;;;;;;2.00;1.50;;;;;9.47;58.95;100622.63;5021432;28;45742;-82
2022/02/21 10:20:17;;;;;;;;;2.25;2.00;;;;;9.47;58.96;100652.38;5048239;28;45655;-83
2022/02/21 10:23:04;;;;;;;;;2.75;1.25;;;;;9.59;59.30;100633.56;5033682;28;45996;-83
2022/02/21 10:25:30;;;;;;;;;1.25;0.75;;;;;9.51;58.58;100632.41;5027746;28;45536;-81
2022/02/21 10:27:58;;;;;;;;;4.50;3.00;;;;;9.29;58.67;100568.66;5030484;28;45485;-83
2022/02/21 10:30:23;;;;;;;;;3.00;1.00;;;;;10.21;58.99;100725.94;5012284;28;47646;-83
2022/02/21 10:32:50;;;;;;;;;4.50;1.50;;;;;8.96;58.68;100536.81;5026487;28;45460;-82
2022/02/21 10:35:30;;;;;;;;;3.50;2.00;;;;;9.56;58.47;100616.00;5027495;28;45573;-84
2022/02/21 10:37:59;;;;;;;;;2.00;1.75;;;;;9.92;58.37;100651.38;5027408;28;46145;-83
2022/02/21 10:40:35;;;;;;;;;4.00;2.00;;;;;10.91;57.76;100743.25;5010831;28;47211;-83
2022/02/21 10:43:11;;;;;;;;;5.75;2.75;;;;;10.58;57.76;100646.66;5029192;28;45679;-82
2022/02/21 10:45:39;;;;;;;;;4.50;3.00;;;;;10.20;56.99;100605.97;5009665;28;45592;-82
2022/02/21 10:48:08;;;;;;;;;5.00;3.25;;;;;11.22;56.68;100748.66;5010891;28;45958;-81
2022/02/21 10:50:37;;;;;;;;;3.00;3.00;;;;;10.22;56.43;100584.16;5010767;28;48496;-83
2022/02/21 10:53:11;;;;;;;;;2.75;1.00;;;;;11.27;56.26;100736.56;5028780;28;45932;-83
2022/02/21 10:55:37;;;;;;;;;2.00;1.00;;;;;10.80;56.10;100664.03;5027209;28;45356;-83
2022/02/21 10:58:25;;;;;;;;;1.00;1.00;;;;;11.02;55.88;100703.31;5029440;28;45381;-81
2022/02/21 11:00:55;;;;;;;;;2.00;1.50;;;;;11.31;55.84;100756.84;5029804;28;45503;-82
2022/02/21 11:03:26;;;;;;;;;3.75;3.00;;;;;10.84;55.07;100658.94;5010445;28;45836;-82
2022/02/21 11:05:55;;;;;;;;;6.00;3.50;;;;;10.28;55.47;100559.84;5011350;28;45342;-83
2022/02/21 11:08:21;;;;;;;;;6.00;5.50;;;;;11.30;55.28;100681.41;5029301;28;45380;-91
2022/02/21 11:10:52;;;;;;;;;3.00;2.00;;;;;10.85;54.63;100575.69;5026518;28;45572;-82
2022/02/21 11:13:20;;;;;;;;;5.75;3.75;;;;;10.93;54.35;100586.44;5030199;28;45570;-88
2022/02/21 11:15:48;;;;;;;;;4.25;3.25;;;;;11.20;54.52;100612.69;5028764;28;45465;-82
2022/02/21 11:18:16;;;;;;;;;3.25;2.75;;;;;11.74;53.92;100691.47;5028841;28;45595;-82
2022/02/21 11:20:44;;;;;;;;;5.00;4.00;;;;;11.26;53.98;100615.50;5026462;28;46358;-82
2022/02/21 11:23:10;;;;;;;;;1.00;1.00;;;;;12.10;53.98;100736.44;5010016;28;45786;-81
2022/02/21 11:25:44;;;;;;;;;2.75;2.00;;;;;12.21;54.27;100742.88;5026189;28;45707;-81
2022/02/21 11:28:36;;;;;;;;;3.50;3.25;;;;;11.68;53.95;100621.09;5020461;28;45502;-80